DAUT

Timimoun Airport

Timimoun, Algeria
METAR DAUT 211900Z 36004KT CAVOK 16/M02 Q1026
Observed Flight Rules
Jan-21 @ 19:00 UTC (an hour ago) Visual Flight Rules
Wind Visibility Clouds
360° at 4 knots 10,000+ meters
  • Clear skies
Temperatures Readings
Current 16°C / 61°F
Dewpoint -2°C / 28°F
Humidity 29%
Altimeter 30.3" Hg
Pressure 1026 hPa
Elevation 312
METAR DAUT 211900Z 36004KT CAVOK 16/M02 Q1026
Observed Flight Rules
Jan-21 @ 19:00 UTC
(an hour ago)
VFR
Wind Visibility
360° at 4 knots 10,000+ meters
Clouds
  • Clear skies
Temperature Dewpoint
16°C / 61°F -2°C / 28°F
Humidity Altimeter Pressure
29% 30.3" Hg 1026 hPa